createdAt,value
2023-03-28T00:01:13.826Z,9.00
2023-03-28T00:03:42.538Z,8.90
2023-03-28T00:06:12.915Z,8.50
2023-03-28T00:08:41.060Z,8.60
2023-03-28T00:11:35.068Z,8.70
2023-03-28T00:14:03.729Z,8.60
2023-03-28T00:16:34.161Z,8.20
2023-03-28T00:19:05.943Z,8.10
2023-03-28T00:21:36.920Z,8.10
2023-03-28T00:24:07.449Z,8.40
2023-03-28T00:26:36.940Z,8.10
2023-03-28T00:29:06.688Z,8.10
2023-03-28T00:31:35.333Z,8.40
2023-03-28T00:34:04.060Z,8.50
2023-03-28T00:36:32.992Z,8.70
2023-03-28T00:39:06.281Z,8.70
2023-03-28T00:41:39.895Z,8.60
2023-03-28T00:44:38.593Z,8.60
2023-03-28T00:47:12.045Z,8.40
2023-03-28T00:49:39.732Z,8.30
2023-03-28T00:52:08.635Z,8.30
2023-03-28T00:54:40.428Z,8.40
2023-03-28T00:57:09.702Z,8.30
2023-03-28T00:59:39.099Z,8.30
2023-03-28T01:02:07.550Z,8.40
2023-03-28T01:04:43.955Z,8.60
2023-03-28T01:07:25.402Z,8.70
2023-03-28T01:09:53.593Z,8.40
2023-03-28T01:12:22.695Z,8.20
2023-03-28T01:14:51.108Z,8.20
2023-03-28T01:17:19.930Z,8.10
2023-03-28T01:20:09.277Z,8.20
2023-03-28T01:23:04.301Z,8.10
2023-03-28T01:25:50.335Z,8.00
2023-03-28T01:28:33.416Z,7.90
2023-03-28T01:31:13.427Z,7.70
2023-03-28T01:34:25.091Z,7.90
2023-03-28T01:37:13.072Z,7.60
2023-03-28T01:40:18.474Z,7.60
2023-03-28T01:42:53.435Z,7.70
2023-03-28T01:45:41.095Z,7.90
2023-03-28T01:48:38.628Z,7.90
2023-03-28T01:51:31.184Z,7.90
2023-03-28T01:54:30.270Z,7.70
2023-03-28T01:57:01.478Z,7.60
2023-03-28T01:59:41.101Z,7.50
2023-03-28T02:02:42.304Z,7.30
2023-03-28T02:05:26.610Z,7.20
2023-03-28T02:07:56.144Z,7.00
2023-03-28T02:10:45.798Z,7.10
2023-03-28T02:13:40.463Z,7.20
2023-03-28T02:16:32.218Z,7.50
2023-03-28T02:19:06.460Z,7.60
2023-03-28T02:22:24.550Z,7.50
2023-03-28T02:25:01.555Z,7.30
2023-03-28T02:27:45.029Z,7.30
2023-03-28T02:30:36.113Z,7.30
2023-03-28T02:33:10.560Z,7.50
2023-03-28T02:35:55.596Z,7.60
2023-03-28T02:38:39.617Z,7.60
2023-03-28T02:41:19.813Z,7.70
2023-03-28T02:44:22.442Z,7.70
2023-03-28T02:47:14.291Z,7.90
2023-03-28T02:49:54.184Z,7.90
2023-03-28T02:52:37.084Z,7.90
2023-03-28T02:55:18.336Z,7.90
2023-03-28T02:58:02.379Z,7.80
2023-03-28T03:00:31.121Z,7.50
2023-03-28T03:02:58.883Z,7.40
2023-03-28T03:05:26.595Z,7.50
2023-03-28T03:07:54.252Z,7.40
2023-03-28T03:10:24.351Z,7.40
2023-03-28T03:12:52.084Z,7.50
2023-03-28T03:15:20.074Z,7.40
2023-03-28T03:18:01.336Z,7.40
2023-03-28T03:20:34.956Z,7.40
2023-03-28T03:23:04.189Z,7.30
2023-03-28T03:25:35.091Z,7.10
2023-03-28T03:28:17.783Z,7.20
2023-03-28T03:30:46.542Z,7.00
2023-03-28T03:33:43.705Z,7.00
2023-03-28T03:36:13.596Z,7.20
2023-03-28T03:38:42.324Z,7.10
2023-03-28T03:41:14.750Z,7.20
2023-03-28T03:43:42.957Z,7.20
2023-03-28T03:46:11.651Z,7.20
2023-03-28T03:48:39.621Z,7.30
2023-03-28T03:51:18.912Z,7.30
2023-03-28T03:53:50.886Z,7.20
2023-03-28T03:56:21.489Z,7.30
2023-03-28T03:59:00.070Z,7.20
2023-03-28T04:01:31.789Z,7.20
2023-03-28T04:04:11.771Z,7.10
2023-03-28T04:06:59.364Z,7.20
2023-03-28T04:09:28.891Z,7.00
2023-03-28T04:12:00.700Z,6.90
2023-03-28T04:14:28.733Z,6.90
2023-03-28T04:17:16.367Z,7.00
2023-03-28T04:19:45.761Z,7.30
2023-03-28T04:22:13.929Z,7.30
2023-03-28T04:24:50.071Z,7.40
2023-03-28T04:27:34.992Z,7.50
2023-03-28T04:30:04.199Z,7.50
2023-03-28T04:32:54.486Z,7.40
2023-03-28T04:35:29.835Z,7.50
2023-03-28T04:38:00.186Z,7.50
2023-03-28T04:40:28.345Z,7.50
2023-03-28T04:43:19.863Z,7.50
2023-03-28T04:45:51.066Z,7.40
2023-03-28T04:48:19.640Z,7.40
2023-03-28T04:50:47.774Z,7.50
2023-03-28T04:53:17.446Z,7.60
2023-03-28T04:56:05.997Z,7.80
2023-03-28T04:58:34.080Z,7.80
2023-03-28T05:01:04.134Z,7.70
2023-03-28T05:03:58.272Z,7.60
2023-03-28T05:06:26.439Z,7.50
2023-03-28T05:08:54.459Z,7.40
2023-03-28T05:11:27.010Z,7.30
2023-03-28T05:13:54.694Z,7.20
2023-03-28T05:16:33.400Z,7.20
2023-03-28T05:19:21.993Z,7.20
2023-03-28T05:22:12.906Z,7.10
2023-03-28T05:24:43.373Z,7.00
2023-03-28T05:27:18.895Z,7.00
2023-03-28T05:29:47.690Z,6.80
2023-03-28T05:32:15.755Z,6.90
2023-03-28T05:34:43.509Z,7.00
2023-03-28T05:37:11.495Z,6.90
2023-03-28T05:39:59.392Z,7.00
2023-03-28T05:42:27.173Z,6.90
2023-03-28T05:44:54.956Z,6.70
2023-03-28T05:47:22.725Z,6.60
2023-03-28T05:49:51.338Z,6.70
2023-03-28T05:52:21.656Z,6.70
2023-03-28T05:54:50.479Z,6.60
2023-03-28T05:57:21.652Z,6.50
2023-03-28T05:59:49.737Z,6.50
2023-03-28T06:02:22.553Z,6.50
2023-03-28T06:04:54.112Z,6.20
2023-03-28T06:07:35.236Z,6.40
2023-03-28T06:10:11.839Z,6.50
2023-03-28T06:13:05.899Z,6.70
2023-03-28T06:15:34.002Z,6.70
2023-03-28T06:18:01.773Z,6.70
2023-03-28T06:20:29.826Z,6.80
2023-03-28T06:22:57.520Z,7.00
2023-03-28T06:25:25.273Z,6.90
2023-03-28T06:27:53.093Z,7.00
2023-03-28T06:30:20.811Z,7.20
2023-03-28T06:32:51.711Z,7.40
2023-03-28T06:35:19.843Z,7.50
2023-03-28T06:37:47.426Z,7.70
2023-03-28T06:40:22.621Z,7.70
2023-03-28T06:42:50.603Z,7.80
2023-03-28T06:45:38.493Z,8.00
2023-03-28T06:48:11.151Z,8.30
2023-03-28T06:50:58.620Z,8.40
2023-03-28T06:53:27.788Z,8.60
2023-03-28T06:55:56.194Z,8.70
2023-03-28T06:58:25.004Z,8.70
2023-03-28T07:01:01.150Z,8.70
2023-03-28T07:03:30.343Z,8.70
2023-03-28T07:05:59.153Z,8.80
2023-03-28T07:08:27.321Z,9.00
2023-03-28T07:10:55.087Z,8.90
2023-03-28T07:13:23.081Z,8.90
2023-03-28T07:16:05.475Z,8.90
2023-03-28T07:18:33.812Z,9.00
2023-03-28T07:21:14.098Z,9.00
2023-03-28T07:23:42.829Z,9.10
2023-03-28T07:26:13.506Z,9.10
2023-03-28T07:28:41.920Z,9.20
2023-03-28T07:33:38.837Z,9.40
2023-03-28T07:36:14.536Z,9.40
2023-03-28T07:38:46.553Z,9.40
2023-03-28T07:41:16.054Z,9.60
2023-03-28T07:43:43.840Z,9.70
2023-03-28T07:46:14.619Z,9.80
2023-03-28T07:48:43.275Z,9.90
2023-03-28T07:51:12.318Z,10.00
2023-03-28T07:53:40.189Z,10.20
2023-03-28T07:56:10.754Z,10.30
2023-03-28T07:58:55.297Z,10.50
2023-03-28T08:01:23.091Z,10.70
2023-03-28T08:03:57.869Z,10.80
2023-03-28T08:06:34.279Z,10.80
2023-03-28T08:09:03.427Z,10.70
2023-03-28T08:11:39.908Z,10.90
2023-03-28T08:14:10.555Z,10.90
2023-03-28T08:16:39.399Z,11.10
2023-03-28T08:19:11.772Z,11.20
2023-03-28T08:22:05.857Z,11.20
2023-03-28T08:24:41.813Z,11.20
2023-03-28T08:27:15.751Z,11.20
2023-03-28T08:29:46.023Z,11.30
2023-03-28T08:32:14.616Z,11.40
2023-03-28T08:34:42.333Z,11.20
2023-03-28T08:37:15.577Z,11.50
2023-03-28T08:39:47.521Z,11.60
2023-03-28T08:42:44.289Z,11.80
2023-03-28T08:45:29.968Z,12.00
2023-03-28T08:48:16.578Z,12.10
2023-03-28T08:51:08.869Z,12.10
2023-03-28T08:53:42.412Z,12.30
2023-03-28T08:56:14.163Z,12.10
2023-03-28T08:59:02.114Z,12.10
2023-03-28T09:01:33.057Z,12.20
2023-03-28T09:04:02.552Z,12.20
2023-03-28T09:06:43.902Z,12.20
2023-03-28T09:09:34.807Z,12.30
2023-03-28T09:12:36.547Z,12.40
2023-03-28T09:15:08.276Z,12.60
2023-03-28T09:18:03.714Z,12.70
2023-03-28T09:21:04.436Z,12.70
2023-03-28T09:24:08.497Z,12.60
2023-03-28T09:26:42.158Z,12.70
2023-03-28T09:29:24.881Z,12.70
2023-03-28T09:32:02.066Z,12.90
2023-03-28T09:34:40.535Z,13.00
2023-03-28T09:37:25.575Z,13.00
2023-03-28T09:39:56.616Z,13.10
2023-03-28T09:42:38.599Z,13.20
2023-03-28T09:45:50.261Z,13.20
2023-03-28T09:48:48.269Z,13.20
2023-03-28T09:51:20.052Z,13.20
2023-03-28T09:53:48.480Z,13.10
2023-03-28T09:56:33.331Z,13.20
2023-03-28T09:59:30.863Z,13.10
2023-03-28T10:02:05.568Z,13.20
2023-03-28T10:04:39.476Z,13.10
2023-03-28T10:07:32.978Z,13.20
2023-03-28T10:10:20.466Z,13.40
2023-03-28T10:12:57.542Z,13.60
2023-03-28T10:15:41.497Z,13.70
2023-03-28T10:18:25.392Z,13.60
2023-03-28T10:21:24.269Z,13.80
2023-03-28T10:24:07.798Z,13.70
2023-03-28T10:26:37.091Z,13.90
2023-03-28T10:29:08.789Z,13.80
2023-03-28T10:31:39.815Z,14.00
2023-03-28T10:34:37.211Z,14.20
2023-03-28T10:37:27.653Z,14.50
2023-03-28T10:40:19.244Z,14.50
2023-03-28T10:43:13.120Z,14.50
2023-03-28T10:45:43.752Z,14.60
2023-03-28T10:48:20.944Z,14.60
2023-03-28T10:50:59.421Z,14.60
2023-03-28T10:53:49.427Z,14.70
2023-03-28T10:56:38.686Z,14.80
2023-03-28T10:59:17.828Z,14.90
2023-03-28T11:02:24.578Z,15.10
2023-03-28T11:05:18.431Z,14.90
2023-03-28T11:08:23.238Z,15.00
2023-03-28T11:11:05.418Z,15.00
2023-03-28T11:13:52.578Z,15.10
2023-03-28T11:16:32.182Z,14.80
2023-03-28T11:19:22.102Z,15.20
2023-03-28T11:22:07.778Z,15.60
2023-03-28T11:24:46.608Z,15.70
2023-03-28T11:28:19.492Z,15.80
2023-03-28T11:30:56.241Z,15.60
2023-03-28T11:33:51.112Z,15.60
2023-03-28T11:36:40.122Z,15.80
2023-03-28T11:39:29.109Z,15.60
2023-03-28T11:41:59.791Z,15.90
2023-03-28T11:45:09.487Z,16.10
2023-03-28T11:47:44.522Z,16.30
2023-03-28T11:50:19.092Z,16.50
2023-03-28T11:53:27.644Z,16.30
2023-03-28T11:56:10.162Z,16.30
2023-03-28T11:59:07.699Z,16.30
2023-03-28T12:01:42.275Z,16.60
2023-03-28T12:04:30.278Z,16.50
2023-03-28T12:07:10.583Z,16.40
2023-03-28T12:10:06.142Z,16.50
2023-03-28T12:12:57.545Z,16.70
2023-03-28T12:15:53.489Z,16.70
2023-03-28T12:18:46.303Z,17.00
2023-03-28T12:21:47.918Z,16.80
2023-03-28T12:24:29.982Z,16.90
2023-03-28T12:27:18.670Z,16.70
2023-03-28T12:30:05.075Z,16.90
2023-03-28T12:32:43.450Z,16.80
2023-03-28T12:35:25.714Z,16.80
2023-03-28T12:38:29.472Z,16.90
2023-03-28T12:41:25.262Z,17.50
2023-03-28T12:44:01.081Z,17.30
2023-03-28T12:46:47.394Z,17.00
2023-03-28T12:49:23.679Z,17.00
2023-03-28T12:51:57.164Z,17.40
2023-03-28T12:54:31.970Z,17.40
2023-03-28T12:57:10.021Z,17.60
2023-03-28T13:00:02.168Z,18.20
2023-03-28T13:03:08.270Z,18.20
2023-03-28T13:05:56.288Z,18.50
2023-03-28T13:08:35.812Z,18.30
2023-03-28T13:11:17.952Z,18.40
2023-03-28T13:14:23.327Z,18.20
2023-03-28T13:17:21.887Z,17.90
2023-03-28T13:20:10.693Z,18.00
2023-03-28T13:22:47.696Z,18.10
2023-03-28T13:25:29.671Z,17.90
2023-03-28T13:28:18.449Z,18.20
2023-03-28T13:30:46.915Z,18.20
2023-03-28T13:33:28.013Z,18.10
2023-03-28T13:35:58.958Z,18.10
2023-03-28T13:38:29.693Z,18.20
2023-03-28T13:41:07.040Z,17.80
2023-03-28T13:43:43.820Z,17.90
2023-03-28T13:46:17.287Z,18.20
2023-03-28T13:49:11.620Z,18.50
2023-03-28T13:52:00.705Z,18.20
2023-03-28T13:54:30.130Z,18.10
2023-03-28T13:57:08.419Z,18.00
2023-03-28T13:59:50.392Z,18.20
2023-03-28T14:02:34.529Z,18.30
2023-03-28T14:05:21.882Z,18.60
2023-03-28T14:07:51.665Z,18.60
2023-03-28T14:10:30.210Z,18.20
2023-03-28T14:13:05.784Z,18.30
2023-03-28T14:15:36.957Z,18.70
2023-03-28T14:18:04.888Z,18.60
2023-03-28T14:20:34.292Z,18.70
2023-03-28T14:23:02.185Z,18.80
2023-03-28T14:25:33.421Z,18.80
2023-03-28T14:28:11.320Z,18.50
2023-03-28T14:30:42.394Z,18.20
2023-03-28T14:33:12.802Z,18.00
2023-03-28T14:35:43.237Z,18.00
2023-03-28T14:38:26.642Z,18.10
2023-03-28T14:40:56.035Z,18.00
2023-03-28T14:43:30.746Z,18.10
2023-03-28T14:46:03.154Z,18.20
2023-03-28T14:48:31.294Z,18.00
2023-03-28T14:51:00.686Z,17.80
2023-03-28T14:53:30.509Z,17.70
2023-03-28T14:56:04.085Z,17.30
2023-03-28T14:58:35.435Z,17.30
2023-03-28T15:01:04.984Z,17.40
2023-03-28T15:03:40.339Z,17.40
2023-03-28T15:06:14.337Z,17.40
2023-03-28T15:08:44.085Z,17.30
2023-03-28T15:11:20.724Z,17.30
2023-03-28T15:14:01.536Z,17.10
2023-03-28T15:16:30.743Z,17.10
2023-03-28T15:19:09.524Z,17.00
2023-03-28T15:21:40.351Z,17.10
2023-03-28T15:24:14.757Z,17.30
2023-03-28T15:26:45.156Z,17.40
2023-03-28T15:29:18.576Z,17.50
2023-03-28T15:31:47.824Z,17.20
2023-03-28T15:34:24.403Z,17.10
2023-03-28T15:36:59.240Z,17.20
2023-03-28T15:39:29.966Z,17.10
2023-03-28T15:42:02.036Z,17.10
2023-03-28T15:44:34.840Z,17.00
2023-03-28T15:47:09.997Z,16.90
2023-03-28T15:49:38.636Z,17.00
2023-03-28T15:52:15.408Z,16.90
2023-03-28T15:54:46.883Z,16.90
2023-03-28T15:57:16.153Z,16.90
2023-03-28T15:59:48.794Z,16.90
2023-03-28T16:02:25.716Z,16.90
2023-03-28T16:05:06.969Z,16.90
2023-03-28T16:07:48.778Z,16.80
2023-03-28T16:10:22.473Z,16.70
2023-03-28T16:13:22.696Z,16.50
2023-03-28T16:16:16.375Z,16.50
2023-03-28T16:18:55.233Z,16.40
2023-03-28T16:21:22.988Z,16.50
2023-03-28T16:23:51.225Z,16.40
2023-03-28T16:26:18.997Z,16.50
2023-03-28T16:28:46.731Z,16.50
2023-03-28T16:31:15.828Z,16.50
2023-03-28T16:33:44.103Z,16.50
2023-03-28T16:36:13.422Z,16.40
2023-03-28T16:38:41.255Z,16.30
2023-03-28T16:41:09.454Z,16.10
2023-03-28T16:43:38.021Z,16.00
2023-03-28T16:46:06.208Z,15.90
2023-03-28T16:48:36.931Z,15.80
2023-03-28T16:51:05.323Z,15.70
2023-03-28T16:53:38.679Z,15.60
2023-03-28T16:56:11.486Z,15.60
2023-03-28T16:58:39.789Z,15.60
2023-03-28T17:01:12.685Z,15.50
2023-03-28T17:03:40.516Z,15.50
2023-03-28T17:06:09.875Z,15.50
2023-03-28T17:08:38.040Z,15.50
2023-03-28T17:11:11.293Z,15.50
2023-03-28T17:13:40.120Z,15.40
2023-03-28T17:16:09.270Z,15.30
2023-03-28T17:18:36.989Z,15.30
2023-03-28T17:21:11.302Z,15.20
2023-03-28T17:23:40.227Z,15.10
2023-03-28T17:26:09.853Z,15.00
2023-03-28T17:28:39.964Z,14.90
2023-03-28T17:31:13.433Z,14.90
2023-03-28T17:33:41.521Z,14.80
2023-03-28T17:36:24.819Z,14.70
2023-03-28T17:38:55.060Z,14.80
2023-03-28T17:41:23.490Z,14.60
2023-03-28T17:43:56.680Z,14.60
2023-03-28T17:46:25.095Z,14.50
2023-03-28T17:48:53.935Z,14.50
2023-03-28T17:51:21.689Z,14.40
2023-03-28T17:53:49.887Z,14.30
2023-03-28T17:56:17.818Z,14.30
2023-03-28T17:58:46.175Z,14.40
2023-03-28T18:01:16.716Z,14.20
2023-03-28T18:03:46.057Z,14.10
2023-03-28T18:06:43.317Z,14.00
2023-03-28T18:09:11.563Z,13.70
2023-03-28T18:11:39.611Z,13.60
2023-03-28T18:14:08.847Z,13.60
2023-03-28T18:16:38.910Z,13.60
2023-03-28T18:19:07.095Z,13.50
2023-03-28T18:21:35.310Z,13.50
2023-03-28T18:24:03.165Z,13.50
2023-03-28T18:26:31.851Z,13.60
2023-03-28T18:28:59.593Z,13.60
2023-03-28T18:31:28.436Z,13.60
2023-03-28T18:33:57.789Z,13.60
2023-03-28T18:36:31.132Z,13.50
2023-03-28T18:38:58.955Z,13.40
2023-03-28T18:41:27.536Z,13.40
2023-03-28T18:43:55.896Z,13.40
2023-03-28T18:46:26.233Z,13.30
2023-03-28T18:48:54.965Z,13.20
2023-03-28T18:51:23.238Z,13.10
2023-03-28T18:53:51.306Z,13.20
2023-03-28T18:56:19.110Z,13.20
2023-03-28T18:58:52.435Z,13.20
2023-03-28T19:01:20.999Z,13.10
2023-03-28T19:03:50.748Z,12.90
2023-03-28T19:06:19.800Z,12.90
2023-03-28T19:08:47.690Z,12.90
2023-03-28T19:11:16.981Z,12.80
2023-03-28T19:13:44.721Z,12.90
2023-03-28T19:16:15.189Z,12.80
2023-03-28T19:18:44.889Z,12.70
2023-03-28T19:21:13.228Z,12.70
2023-03-28T19:23:41.407Z,12.60
2023-03-28T19:26:11.706Z,12.60
2023-03-28T19:28:39.938Z,12.50
2023-03-28T19:31:10.209Z,12.50
2023-03-28T19:33:41.383Z,12.40
2023-03-28T19:36:10.818Z,12.30
2023-03-28T19:38:40.429Z,12.10
2023-03-28T19:41:17.691Z,11.80
2023-03-28T19:43:46.448Z,11.70
2023-03-28T19:46:22.150Z,11.60
2023-03-28T19:48:52.955Z,11.60
2023-03-28T19:51:21.048Z,11.70
2023-03-28T19:53:49.285Z,11.70
2023-03-28T19:56:19.051Z,11.70
2023-03-28T19:58:47.212Z,11.90
2023-03-28T20:01:15.361Z,11.80
2023-03-28T20:03:43.171Z,11.90
2023-03-28T20:06:14.376Z,11.80
2023-03-28T20:08:42.926Z,11.80
2023-03-28T20:11:12.413Z,11.90
2023-03-28T20:13:40.503Z,11.60
2023-03-28T20:16:10.106Z,11.50
2023-03-28T20:18:38.046Z,11.40
2023-03-28T20:21:08.697Z,11.40
2023-03-28T20:23:36.975Z,11.50
2023-03-28T20:26:19.123Z,11.50
2023-03-28T20:28:50.128Z,11.70
2023-03-28T20:31:19.357Z,11.70
2023-03-28T20:33:47.184Z,11.60
2023-03-28T20:36:15.010Z,11.30
2023-03-28T20:38:42.779Z,11.30
2023-03-28T20:41:12.220Z,11.30
2023-03-28T20:43:46.979Z,11.20
2023-03-28T20:46:19.872Z,11.10
2023-03-28T20:48:52.578Z,11.10
2023-03-28T20:51:23.138Z,11.20
2023-03-28T20:53:55.099Z,11.20
2023-03-28T20:56:24.099Z,11.10
2023-03-28T20:58:53.326Z,11.00
2023-03-28T21:01:26.389Z,11.00
2023-03-28T21:03:57.575Z,11.00
2023-03-28T21:06:33.697Z,10.80
2023-03-28T21:09:04.726Z,11.00
2023-03-28T21:11:34.669Z,11.00
2023-03-28T21:14:03.544Z,11.20
2023-03-28T21:16:32.702Z,11.10
2023-03-28T21:19:01.934Z,11.20
2023-03-28T21:21:30.382Z,10.90
2023-03-28T21:23:58.131Z,10.80
2023-03-28T21:26:26.533Z,10.70
2023-03-28T21:28:54.803Z,10.70
2023-03-28T21:31:28.663Z,10.70
2023-03-28T21:33:57.835Z,10.60
2023-03-28T21:36:29.384Z,10.70
2023-03-28T21:38:57.561Z,10.80
2023-03-28T21:41:27.526Z,11.00
2023-03-28T21:43:55.306Z,10.80
2023-03-28T21:46:23.276Z,10.70
2023-03-28T21:48:51.153Z,10.70
2023-03-28T21:51:18.953Z,10.70
2023-03-28T21:53:46.876Z,10.70
2023-03-28T21:56:16.558Z,10.70
2023-03-28T21:58:44.406Z,10.80
2023-03-28T22:01:14.469Z,10.60
2023-03-28T22:03:42.563Z,10.40
2023-03-28T22:06:10.912Z,10.20
2023-03-28T22:08:39.981Z,10.10
2023-03-28T22:11:16.853Z,9.90
2023-03-28T22:13:47.393Z,9.60
2023-03-28T22:16:15.683Z,9.40
2023-03-28T22:18:49.774Z,9.30
2023-03-28T22:21:18.247Z,9.40
2023-03-28T22:23:47.719Z,9.30
2023-03-28T22:26:16.162Z,9.40
2023-03-28T22:28:44.299Z,9.10
2023-03-28T22:31:12.508Z,9.20
2023-03-28T22:33:40.333Z,9.30
2023-03-28T22:36:08.730Z,9.30
2023-03-28T22:38:37.616Z,9.30
2023-03-28T22:41:07.856Z,9.40
2023-03-28T22:43:36.456Z,9.40
2023-03-28T22:46:05.776Z,9.20
2023-03-28T22:48:33.884Z,9.30
2023-03-28T22:51:01.886Z,9.30
2023-03-28T22:53:30.398Z,9.30
2023-03-28T22:55:58.978Z,9.30
2023-03-28T22:58:27.399Z,9.30
2023-03-28T23:00:55.189Z,9.30
2023-03-28T23:03:23.092Z,9.50
2023-03-28T23:05:51.845Z,9.50
2023-03-28T23:08:19.671Z,9.60
2023-03-28T23:10:48.108Z,9.70
2023-03-28T23:13:16.518Z,9.60
2023-03-28T23:15:44.912Z,9.40
2023-03-28T23:18:12.557Z,9.40
2023-03-28T23:20:40.511Z,9.40
2023-03-28T23:23:08.985Z,9.30
2023-03-28T23:25:37.300Z,9.20
2023-03-28T23:28:05.107Z,9.30
2023-03-28T23:30:32.832Z,9.30
2023-03-28T23:33:00.648Z,9.40
2023-03-28T23:35:28.423Z,9.60
2023-03-28T23:37:56.049Z,9.60
2023-03-28T23:40:24.554Z,9.50
2023-03-28T23:42:52.237Z,9.50
2023-03-28T23:45:19.902Z,9.50
2023-03-28T23:47:47.651Z,9.50
2023-03-28T23:50:15.603Z,9.30
2023-03-28T23:52:43.224Z,9.50
2023-03-28T23:55:10.896Z,9.50
2023-03-28T23:57:38.643Z,9.30
